Time;durP1;ratioP1;P1;durP2;ratioP2;P2;SDS_P1;SDS_P2;PMS_P1;PMS_P2;Temp;Humidity;BMP_temperature;BMP_pressure;BME280_temperature;BME280_humidity;BME280_pressure;Samples;Min_cycle;Max_cycle;Signal;HPM_P1;HPM_P2
2021/01/30 00:00:46;;;;;;;7.25;3.83;;;12.10;83.60;;;;;;4950526;28;80179;-70
2021/01/30 00:03:14;;;;;;;7.38;4.25;;;12.10;83.60;;;;;;4968758;28;80469;-68
2021/01/30 00:05:40;;;;;;;5.70;3.42;;;12.10;83.60;;;;;;4949728;28;80671;-68
2021/01/30 00:08:08;;;;;;;6.05;3.35;;;12.00;83.60;;;;;;4968264;28;81052;-73
2021/01/30 00:10:34;;;;;;;6.30;3.33;;;12.00;83.70;;;;;;4950544;28;80732;-70
2021/01/30 00:13:02;;;;;;;5.15;3.17;;;12.00;83.70;;;;;;4968083;28;80569;-71
2021/01/30 00:15:29;;;;;;;6.10;3.45;;;12.00;83.70;;;;;;4950479;28;83018;-73
2021/01/30 00:17:56;;;;;;;7.68;3.10;;;12.00;83.70;;;;;;4949792;28;83096;-69
2021/01/30 00:20:28;;;;;;;5.15;2.60;;;12.00;83.70;;;;;;4967907;28;80856;-69
2021/01/30 00:22:55;;;;;;;4.40;2.28;;;11.90;83.60;;;;;;4950615;28;81739;-72
2021/01/30 00:25:27;;;;;;;4.32;2.33;;;11.90;83.60;;;;;;4950109;28;80497;-70
2021/01/30 00:27:54;;;;;;;3.85;2.38;;;11.90;83.60;;;;;;4950650;28;82600;-74
2021/01/30 00:30:22;;;;;;;5.07;2.70;;;11.90;83.70;;;;;;4949804;28;80702;-70
2021/01/30 00:32:49;;;;;;;5.28;2.33;;;11.90;83.70;;;;;;4949925;28;80917;-79
2021/01/30 00:35:16;;;;;;;4.68;2.35;;;11.90;83.80;;;;;;4949731;28;82757;-87
2021/01/30 00:37:42;;;;;;;4.47;2.53;;;11.90;83.80;;;;;;4950283;28;81703;-88
2021/01/30 00:40:09;;;;;;;3.92;2.00;;;11.90;83.80;;;;;;4970446;28;80170;-91
2021/01/30 00:42:35;;;;;;;4.07;2.22;;;12.00;83.70;;;;;;4954626;28;80119;-80
2021/01/30 00:45:05;;;;;;;5.30;2.33;;;12.00;83.70;;;;;;4955260;28;80512;-80
2021/01/30 00:47:31;;;;;;;4.10;2.30;;;11.90;83.60;;;;;;4955719;28;81612;-83
2021/01/30 00:49:57;;;;;;;4.72;2.38;;;11.90;83.70;;;;;;4954537;28;82542;-83
2021/01/30 00:52:24;;;;;;;5.00;2.40;;;11.90;83.90;;;;;;4972812;28;79777;-71
2021/01/30 00:54:52;;;;;;;3.00;1.70;;;11.90;83.90;;;;;;4968855;28;80166;-70
2021/01/30 00:57:18;;;;;;;3.60;1.88;;;11.90;83.70;;;;;;4952529;28;82698;-70
2021/01/30 00:59:44;;;;;;;3.15;1.58;;;11.90;83.60;;;;;;4969740;28;80301;-78
2021/01/30 01:02:10;;;;;;;2.67;1.42;;;11.90;83.60;;;;;;4952519;28;79646;-70
2021/01/30 01:04:36;;;;;;;3.38;1.50;;;11.90;83.50;;;;;;4968864;28;80343;-78
2021/01/30 01:07:02;;;;;;;3.38;1.23;;;11.90;83.30;;;;;;4951410;28;81126;-82
2021/01/30 01:09:28;;;;;;;3.80;1.67;;;11.90;83.10;;;;;;4951533;28;82212;-84
2021/01/30 01:11:54;;;;;;;3.67;1.58;;;11.90;83.00;;;;;;4967678;28;82565;-73
2021/01/30 01:14:22;;;;;;;2.30;1.00;;;11.90;83.00;;;;;;4967204;28;80779;-71
2021/01/30 01:16:48;;;;;;;2.50;1.50;;;11.90;82.90;;;;;;4969839;28;80620;-72
2021/01/30 01:19:14;;;;;;;2.33;1.23;;;11.90;82.90;;;;;;4952811;28;80457;-75
2021/01/30 01:21:40;;;;;;;2.42;1.15;;;11.90;83.00;;;;;;4970756;28;81172;-70
2021/01/30 01:24:07;;;;;;;2.55;1.35;;;11.90;83.00;;;;;;4971106;28;79720;-70
2021/01/30 01:26:33;;;;;;;4.05;2.00;;;11.90;83.10;;;;;;4970661;28;80507;-70
2021/01/30 01:28:58;;;;;;;3.47;1.80;;;11.90;83.10;;;;;;4970634;28;80252;-70
2021/01/30 01:31:25;;;;;;;2.38;1.10;;;11.90;83.10;;;;;;4953530;28;82335;-75
2021/01/30 01:33:51;;;;;;;2.45;1.30;;;11.90;83.10;;;;;;4952207;28;82531;-71
2021/01/30 01:36:20;;;;;;;2.42;1.02;;;11.90;83.10;;;;;;4970624;28;80696;-71
2021/01/30 01:38:45;;;;;;;2.15;1.30;;;11.90;83.00;;;;;;4952612;28;82710;-70
2021/01/30 01:41:12;;;;;;;2.92;1.40;;;12.00;82.80;;;;;;4952619;28;80795;-70
2021/01/30 01:43:39;;;;;;;2.78;1.42;;;11.90;82.80;;;;;;4952450;28;82398;-70
2021/01/30 01:46:10;;;;;;;1.65;0.73;;;12.00;82.80;;;;;;4970674;28;80454;-73
2021/01/30 01:48:51;;;;;;;3.85;1.58;;;12.00;82.70;;;;;;4970409;28;80064;-70
2021/01/30 01:51:36;;;;;;;2.42;1.02;;;12.00;82.60;;;;;;4951736;28;82894;-69
2021/01/30 01:54:05;;;;;;;1.95;0.85;;;12.00;82.50;;;;;;4970452;28;79932;-75
2021/01/30 01:56:34;;;;;;;5.07;1.00;;;12.00;82.30;;;;;;4951864;28;82033;-72
2021/01/30 01:59:14;;;;;;;3.13;0.82;;;12.00;82.30;;;;;;4952115;28;82236;-76
2021/01/30 02:01:40;;;;;;;3.00;0.93;;;12.00;82.30;;;;;;4952320;28;80903;-72
2021/01/30 02:04:12;;;;;;;1.95;0.70;;;11.90;82.40;;;;;;4952176;28;83344;-76
2021/01/30 02:06:44;;;;;;;1.55;0.60;;;11.90;82.50;;;;;;4970100;28;80017;-76
2021/01/30 02:09:14;;;;;;;1.77;0.65;;;11.90;82.60;;;;;;4952507;28;80537;-77
2021/01/30 02:11:41;;;;;;;2.38;0.95;;;11.90;82.80;;;;;;4952434;28;81091;-70
2021/01/30 02:14:09;;;;;;;1.85;0.73;;;11.90;82.70;;;;;;4951975;28;81008;-81
2021/01/30 02:16:46;;;;;;;1.73;0.80;;;11.90;82.70;;;;;;4952012;28;79739;-71
2021/01/30 02:19:49;;;;;;;1.52;0.65;;;11.90;82.70;;;;;;4951685;28;81218;-69
2021/01/30 02:22:34;;;;;;;1.70;0.50;;;11.90;82.50;;;;;;4969765;28;80848;-71
2021/01/30 02:25:40;;;;;;;1.45;0.45;;;11.90;82.50;;;;;;4951392;28;80553;-68
2021/01/30 02:28:29;;;;;;;1.88;0.73;;;11.90;82.40;;;;;;4950991;28;82945;-71
2021/01/30 02:31:32;;;;;;;2.20;0.60;;;11.90;82.40;;;;;;4951793;28;79792;-68
2021/01/30 02:34:26;;;;;;;2.10;0.60;;;11.90;82.30;;;;;;4951597;28;82465;-70
2021/01/30 02:36:52;;;;;;;;;;;12.00;82.30;;;;;;4952148;28;81417;-69
2021/01/30 02:39:42;;;;;;;2.63;0.50;;;11.90;82.10;;;;;;4956751;28;75347;-67
2021/01/30 02:42:16;;;;;;;1.13;0.60;;;11.90;82.00;;;;;;4951832;28;79763;-71
2021/01/30 02:44:58;;;;;;;2.35;0.90;;;12.00;82.00;;;;;;4952067;28;79754;-82
2021/01/30 02:47:27;;;;;;;1.42;0.47;;;12.00;81.80;;;;;;4951530;28;81541;-74
2021/01/30 02:50:09;;;;;;;1.90;0.65;;;12.00;81.90;;;;;;4969700;28;80615;-70
2021/01/30 02:52:37;;;;;;;1.50;0.50;;;12.00;81.80;;;;;;4969179;28;81667;-69
2021/01/30 02:55:06;;;;;;;1.40;0.50;;;12.00;81.90;;;;;;4951413;28;82765;-75
2021/01/30 02:57:33;;;;;;;2.55;0.77;;;12.00;81.80;;;;;;4969117;28;81245;-68
2021/01/30 03:00:05;;;;;;;1.70;0.90;;;12.00;81.70;;;;;;4951776;28;82500;-76
2021/01/30 03:02:31;;;;;;;1.80;0.77;;;12.00;81.60;;;;;;4969347;28;80973;-78
2021/01/30 03:04:59;;;;;;;2.03;0.70;;;12.00;81.60;;;;;;4969436;28;80755;-72
2021/01/30 03:07:43;;;;;;;1.90;0.63;;;12.00;81.50;;;;;;4969991;28;80501;-82
2021/01/30 03:10:16;;;;;;;2.08;0.85;;;12.00;81.50;;;;;;4969217;28;79855;-71
2021/01/30 03:12:45;;;;;;;;;;;11.90;81.60;;;;;;4952277;28;82295;-82
2021/01/30 03:15:24;;;;;;;1.50;0.80;;;11.90;81.60;;;;;;4957618;28;74646;-82
2021/01/30 03:17:52;;;;;;;2.97;0.60;;;11.80;81.90;;;;;;4951267;28;79895;-70
2021/01/30 03:20:18;;;;;;;2.00;0.93;;;11.80;82.00;;;;;;4951302;28;82871;-81
2021/01/30 03:22:47;;;;;;;1.83;0.80;;;11.80;82.00;;;;;;4968776;28;80730;-67
2021/01/30 03:25:22;;;;;;;2.50;0.88;;;11.80;82.10;;;;;;4951056;28;81657;-70
2021/01/30 03:27:49;;;;;;;3.15;1.20;;;11.80;82.10;;;;;;4968725;28;81830;-69
2021/01/30 03:30:15;;;;;;;2.08;1.00;;;11.80;82.10;;;;;;4951246;28;83377;-69
2021/01/30 03:32:42;;;;;;;2.22;1.20;;;11.80;82.10;;;;;;4968717;28;80331;-68
2021/01/30 03:35:11;;;;;;;3.03;1.20;;;11.80;82.30;;;;;;4968430;28;80535;-72
2021/01/30 03:37:37;;;;;;;2.90;1.27;;;11.80;82.30;;;;;;4968597;28;84433;-66
2021/01/30 03:40:05;;;;;;;3.53;1.58;;;11.80;82.30;;;;;;4968722;28;80667;-69
2021/01/30 03:42:31;;;;;;;2.78;1.10;;;11.70;82.40;;;;;;4968396;28;81633;-70
2021/01/30 03:44:56;;;;;;;2.95;1.25;;;11.70;82.40;;;;;;4950353;28;82699;-70
2021/01/30 03:47:22;;;;;;;2.85;1.30;;;11.80;82.40;;;;;;4951146;28;82409;-70
2021/01/30 03:49:49;;;;;;;2.85;1.40;;;11.80;82.40;;;;;;4950873;28;79966;-70
2021/01/30 03:52:15;;;;;;;2.55;1.20;;;11.80;82.30;;;;;;4950787;28;80469;-70
2021/01/30 03:54:41;;;;;;;2.38;0.80;;;11.80;82.30;;;;;;4950952;28;83221;-72
2021/01/30 03:57:06;;;;;;;2.40;0.90;;;11.70;82.40;;;;;;4950247;28;80047;-71
2021/01/30 03:59:33;;;;;;;3.38;1.65;;;11.70;82.40;;;;;;4950689;28;80785;-68
2021/01/30 04:01:59;;;;;;;4.40;1.40;;;11.70;82.50;;;;;;4968207;28;80739;-69
2021/01/30 04:04:25;;;;;;;3.30;1.50;;;11.70;82.50;;;;;;4951041;28;83720;-73
2021/01/30 04:06:52;;;;;;;2.70;1.20;;;11.70;82.50;;;;;;4950228;28;80557;-71
2021/01/30 04:09:19;;;;;;;2.53;1.52;;;11.80;82.40;;;;;;4968044;28;82571;-70
2021/01/30 04:11:46;;;;;;;3.42;1.55;;;11.80;82.40;;;;;;4968591;28;80107;-79
2021/01/30 04:14:12;;;;;;;2.03;0.82;;;11.80;82.20;;;;;;4949907;28;80865;-77
2021/01/30 04:16:38;;;;;;;1.95;1.13;;;11.80;82.10;;;;;;4950523;28;83134;-73
2021/01/30 04:19:05;;;;;;;2.72;1.15;;;11.80;81.90;;;;;;4968057;28;80723;-71
2021/01/30 04:21:31;;;;;;;3.38;1.25;;;11.80;81.60;;;;;;4968034;28;79791;-78
2021/01/30 04:23:57;;;;;;;1.80;0.90;;;11.80;81.60;;;;;;4968216;28;79949;-72
2021/01/30 04:26:23;;;;;;;2.42;0.90;;;11.90;81.40;;;;;;4967738;28;80830;-69
2021/01/30 04:28:51;;;;;;;2.10;0.98;;;11.90;81.10;;;;;;4968082;28;80621;-70
2021/01/30 04:31:17;;;;;;;1.50;0.70;;;11.90;80.90;;;;;;4950008;28;82297;-71
2021/01/30 04:33:45;;;;;;;1.30;0.77;;;11.90;80.80;;;;;;4950103;28;80746;-74
2021/01/30 04:36:11;;;;;;;2.50;1.02;;;11.90;80.80;;;;;;4968125;28;80801;-73
2021/01/30 04:38:37;;;;;;;1.60;0.90;;;11.90;80.70;;;;;;4967998;28;79998;-83
2021/01/30 04:41:10;;;;;;;2.63;1.23;;;11.90;80.70;;;;;;4967727;28;79825;-72
2021/01/30 04:43:57;;;;;;;2.10;0.90;;;11.90;80.70;;;;;;4967383;28;80420;-81
2021/01/30 04:47:11;;;;;;;1.98;0.85;;;11.90;80.70;;;;;;4968077;28;80304;-73
2021/01/30 04:50:09;;;;;;;4.20;1.02;;;11.90;81.50;;;;;;4942829;28;81051;-70
2021/01/30 04:52:54;;;;;;;2.88;0.98;;;11.80;82.40;;;;;;4950093;28;80387;-75
2021/01/30 04:55:33;;;;;;;2.42;0.75;;;11.60;83.50;;;;;;4950747;28;80815;-84
2021/01/30 04:58:24;;;;;;;2.25;0.88;;;11.50;84.20;;;;;;4971023;28;79761;-77
2021/01/30 05:01:09;;;;;;;3.55;1.30;;;11.40;84.90;;;;;;4952517;28;82799;-79
2021/01/30 05:04:25;;;;;;;2.50;1.02;;;11.20;85.80;;;;;;4981515;28;80077;-82
2021/01/30 05:07:15;;;;;;;2.03;1.10;;;11.10;86.50;;;;;;4871974;28;80849;-72
2021/01/30 05:10:10;;;;;;;2.20;0.93;;;11.00;86.80;;;;;;4963873;28;80126;-81
2021/01/30 05:13:01;;;;;;;2.83;0.73;;;10.90;87.90;;;;;;4967322;28;80513;-75
2021/01/30 05:15:38;;;;;;;2.70;0.80;;;10.90;88.60;;;;;;4967465;28;80857;-69
2021/01/30 05:18:29;;;;;;;7.57;1.40;;;10.80;88.80;;;;;;4948889;28;82741;-70
2021/01/30 05:21:15;;;;;;;2.55;0.70;;;10.80;89.30;;;;;;4949445;28;80604;-75
2021/01/30 05:23:47;;;;;;;2.00;0.80;;;10.70;89.80;;;;;;4967206;28;79789;-73
2021/01/30 05:26:44;;;;;;;2.35;0.20;;;10.70;89.90;;;;;;4949442;28;80002;-74
2021/01/30 05:29:27;;;;;;;4.75;0.40;;;10.60;90.80;;;;;;4949122;28;80976;-85
2021/01/30 05:32:06;;;;;;;2.03;0.30;;;10.50;91.30;;;;;;4967457;28;79914;-74
2021/01/30 05:34:48;;;;;;;1.20;0.50;;;10.40;91.90;;;;;;4949082;28;81197;-69
2021/01/30 05:37:24;;;;;;;1.25;0.20;;;10.30;92.30;;;;;;4966918;28;80255;-77
2021/01/30 05:40:10;;;;;;;1.05;0.30;;;10.20;92.50;;;;;;4948957;28;80655;-76
2021/01/30 05:43:05;;;;;;;2.25;0.20;;;10.20;92.60;;;;;;4949135;28;80371;-78
2021/01/30 05:45:45;;;;;;;0.60;0.20;;;10.20;92.70;;;;;;4946531;28;82893;-74
2021/01/30 05:48:17;;;;;;;1.13;0.10;;;10.10;92.90;;;;;;4967158;28;80104;-76
2021/01/30 05:51:07;;;;;;;0.38;0.10;;;10.00;92.80;;;;;;4948855;28;80758;-74
2021/01/30 05:53:33;;;;;;;0.22;0.00;;;10.00;92.60;;;;;;4948750;28;83037;-71
2021/01/30 05:55:59;;;;;;;2.33;0.10;;;9.80;92.70;;;;;;4948981;28;83581;-70
2021/01/30 05:58:27;;;;;;;1.90;0.52;;;9.70;92.70;;;;;;4948701;28;82357;-70
2021/01/30 06:01:22;;;;;;;0.93;0.10;;;9.70;92.90;;;;;;4948949;28;82861;-71
2021/01/30 06:04:10;;;;;;;0.43;0.00;;;9.80;92.90;;;;;;4951376;28;82090;-74
2021/01/30 06:06:54;;;;;;;0.10;0.00;;;9.80;92.90;;;;;;4953280;28;83357;-75
2021/01/30 06:09:36;;;;;;;1.02;0.03;;;9.80;92.80;;;;;;4971191;28;80195;-72
2021/01/30 06:12:31;;;;;;;1.33;0.10;;;9.90;92.90;;;;;;4970483;28;80418;-74
2021/01/30 06:15:19;;;;;;;0.75;0.10;;;9.90;92.90;;;;;;4969916;28;80539;-71
2021/01/30 06:17:45;;;;;;;0.50;0.20;;;9.90;93.00;;;;;;4952624;28;83763;-71
2021/01/30 06:20:23;;;;;;;0.90;0.10;;;9.90;93.20;;;;;;4952100;28;82763;-71
2021/01/30 06:23:09;;;;;;;1.08;0.20;;;10.00;93.10;;;;;;4970358;28;79752;-73
2021/01/30 06:25:43;;;;;;;0.57;0.20;;;10.00;93.20;;;;;;4952051;28;82740;-75
2021/01/30 06:28:37;;;;;;;0.90;0.10;;;10.10;93.40;;;;;;4952249;28;80008;-73
2021/01/30 06:31:18;;;;;;;0.80;0.13;;;10.10;93.40;;;;;;4966383;28;80348;-76
2021/01/30 06:33:47;;;;;;;0.52;0.10;;;10.10;93.50;;;;;;4952164;28;80809;-79
2021/01/30 06:36:21;;;;;;;0.93;0.17;;;10.10;93.60;;;;;;4952152;28;82460;-69
2021/01/30 06:38:59;;;;;;;0.22;0.10;;;10.20;93.60;;;;;;4951880;28;83794;-69
2021/01/30 06:41:31;;;;;;;1.92;0.20;;;10.20;93.60;;;;;;4969992;28;80184;-70
2021/01/30 06:44:12;;;;;;;1.00;0.13;;;10.20;93.70;;;;;;4951547;28;80798;-71
2021/01/30 06:47:00;;;;;;;0.77;0.15;;;10.20;93.70;;;;;;4969892;28;80271;-73
2021/01/30 06:49:40;;;;;;;0.35;0.10;;;10.10;93.70;;;;;;4951453;28;82582;-69
2021/01/30 06:52:24;;;;;;;0.43;0.10;;;10.10;93.80;;;;;;4951337;28;80384;-71
2021/01/30 06:55:05;;;;;;;0.32;0.10;;;10.10;93.80;;;;;;4951640;28;80819;-72
2021/01/30 06:57:59;;;;;;;1.38;0.20;;;10.10;93.80;;;;;;4951135;28;83013;-74
2021/01/30 07:00:34;;;;;;;0.40;0.10;;;10.10;93.80;;;;;;4951386;28;82468;-77
2021/01/30 07:03:08;;;;;;;0.93;0.32;;;10.20;93.90;;;;;;4969631;28;79856;-75
2021/01/30 07:06:12;;;;;;;0.80;0.13;;;10.20;93.90;;;;;;4950878;28;83126;-73
2021/01/30 07:08:50;;;;;;;0.30;0.10;;;10.10;93.80;;;;;;4933590;28;82605;-71
2021/01/30 07:11:49;;;;;;;1.52;0.30;;;10.10;93.80;;;;;;4951357;28;81132;-71
2021/01/30 07:14:44;;;;;;;0.10;0.05;;;10.10;93.80;;;;;;4969213;28;79896;-74
2021/01/30 07:17:16;;;;;;;0.57;0.10;;;10.00;93.90;;;;;;4969351;28;80761;-73
2021/01/30 07:20:27;;;;;;;0.80;0.20;;;9.90;93.80;;;;;;4951400;28;81488;-74
2021/01/30 07:23:07;;;;;;;0.32;0.10;;;9.90;93.90;;;;;;4873305;28;81043;-74
2021/01/30 07:25:53;;;;;;;1.10;0.28;;;9.90;93.90;;;;;;4949121;28;81472;-67
2021/01/30 07:28:49;;;;;;;1.42;0.65;;;9.90;94.00;;;;;;4969030;28;80466;-65
2021/01/30 07:31:28;;;;;;;0.98;0.20;;;9.90;93.90;;;;;;4969062;28;80705;-71
2021/01/30 07:34:17;;;;;;;2.47;0.68;;;9.90;94.00;;;;;;4950829;28;80863;-71
2021/01/30 07:36:48;;;;;;;2.08;0.60;;;9.90;94.00;;;;;;4954146;28;80061;-73
2021/01/30 07:39:33;;;;;;;1.10;0.43;;;10.00;94.10;;;;;;4951109;28;82896;-74
2021/01/30 07:42:05;;;;;;;4.70;0.40;;;10.10;94.20;;;;;;4950529;28;82421;-80
2021/01/30 07:44:54;;;;;;;3.65;0.70;;;10.10;94.30;;;;;;4951070;28;82449;-76
2021/01/30 07:47:47;;;;;;;3.20;0.50;;;10.20;94.20;;;;;;4957389;28;80278;-68
2021/01/30 07:50:31;;;;;;;1.25;0.45;;;10.20;94.20;;;;;;4950177;28;83846;-71
2021/01/30 07:53:12;;;;;;;4.82;1.40;;;10.10;94.00;;;;;;4950930;28;80840;-64
2021/01/30 07:55:48;;;;;;;2.25;0.32;;;10.10;94.00;;;;;;4950448;28;82839;-64
2021/01/30 07:58:34;;;;;;;1.52;0.32;;;10.00;94.00;;;;;;4949999;28;80457;-77
2021/01/30 08:01:29;;;;;;;1.48;0.20;;;9.90;93.90;;;;;;4969051;28;79838;-65
2021/01/30 08:04:25;;;;;;;1.27;0.30;;;9.90;93.90;;;;;;4915404;28;80893;-70
2021/01/30 08:07:15;;;;;;;6.30;1.38;;;9.80;93.90;;;;;;4949952;28;82792;-71
2021/01/30 08:09:59;;;;;;;1.05;0.50;;;9.80;94.00;;;;;;4950384;28;80737;-64
2021/01/30 08:12:54;;;;;;;2.50;0.80;;;9.80;94.00;;;;;;4968339;28;80567;-66
2021/01/30 08:15:46;;;;;;;3.15;0.60;;;9.70;94.00;;;;;;4950325;28;82310;-69
2021/01/30 08:18:36;;;;;;;1.63;0.20;;;9.70;94.00;;;;;;4949989;28;81655;-66
2021/01/30 08:21:17;;;;;;;2.30;0.40;;;9.70;94.10;;;;;;4967753;28;80725;-67
2021/01/30 08:24:08;;;;;;;1.17;0.13;;;9.60;94.10;;;;;;4950336;28;83751;-66
2021/01/30 08:26:36;;;;;;;3.50;0.40;;;9.60;94.10;;;;;;4967282;28;79818;-71
2021/01/30 08:29:10;;;;;;;1.38;0.57;;;9.60;94.20;;;;;;4968144;28;80656;-65
2021/01/30 08:31:47;;;;;;;2.05;0.65;;;9.60;94.20;;;;;;4967735;28;80190;-65
2021/01/30 08:34:26;;;;;;;1.50;0.30;;;9.60;94.30;;;;;;4967840;28;80777;-66
2021/01/30 08:37:00;;;;;;;1.30;0.40;;;9.70;94.40;;;;;;4949870;28;82050;-68
2021/01/30 08:39:29;;;;;;;2.65;0.82;;;9.80;94.50;;;;;;4967762;28;81100;-65
2021/01/30 08:42:19;;;;;;;2.78;0.65;;;9.90;94.50;;;;;;4949596;28;82435;-65
2021/01/30 08:44:50;;;;;;;0.93;0.40;;;9.90;94.40;;;;;;4967405;28;80381;-72
2021/01/30 08:47:25;;;;;;;5.03;1.35;;;9.90;94.40;;;;;;4949801;28;83203;-66
2021/01/30 08:50:31;;;;;;;2.70;0.52;;;10.00;94.40;;;;;;4967475;28;80614;-72
2021/01/30 08:53:12;;;;;;;4.55;0.73;;;10.00;94.20;;;;;;4949582;28;81698;-64
2021/01/30 08:55:44;;;;;;;1.13;0.43;;;10.00;94.20;;;;;;4948854;28;82718;-66
2021/01/30 08:58:37;;;;;;;3.85;0.57;;;10.00;94.20;;;;;;4967332;28;80829;-79
2021/01/30 09:01:21;;;;;;;4.38;0.95;;;10.00;94.10;;;;;;4949506;28;82689;-81
2021/01/30 09:03:49;;;;;;;4.43;0.90;;;10.10;94.40;;;;;;4949553;28;81774;-65
2021/01/30 09:06:39;;;;;;;3.88;0.90;;;10.20;94.30;;;;;;4949263;28;82233;-67
2021/01/30 09:09:17;;;;;;;3.97;0.68;;;10.20;93.80;;;;;;4967317;28;80477;-65
2021/01/30 09:11:46;;;;;;;4.15;0.50;;;10.20;94.00;;;;;;4967470;28;79660;-69
2021/01/30 09:14:37;;;;;;;5.63;1.75;;;10.30;94.00;;;;;;4949346;28;81500;-65
2021/01/30 09:17:05;;;;;;;6.88;1.10;;;10.40;93.70;;;;;;4948855;28;82953;-62
2021/01/30 09:20:08;;;;;;;5.13;1.48;;;10.50;93.90;;;;;;4949158;28;80561;-66
2021/01/30 09:22:49;;;;;;;1.85;0.80;;;10.60;93.10;;;;;;4949282;28;80871;-71
2021/01/30 09:25:33;;;;;;;5.80;1.27;;;10.70;93.20;;;;;;4967003;28;80866;-69
2021/01/30 09:28:21;;;;;;;6.03;1.08;;;10.80;93.00;;;;;;4949313;28;81031;-69
2021/01/30 09:31:09;;;;;;;3.83;0.57;;;10.80;92.90;;;;;;4949041;28;80679;-70
2021/01/30 09:33:47;;;;;;;3.30;0.63;;;11.00;93.60;;;;;;4948808;28;82396;-63
2021/01/30 09:36:23;;;;;;;2.13;0.50;;;11.20;93.70;;;;;;4949119;28;80435;-66
2021/01/30 09:38:58;;;;;;;2.10;0.77;;;11.40;94.20;;;;;;4952496;28;80784;-63
2021/01/30 09:41:36;;;;;;;1.50;0.43;;;11.50;94.80;;;;;;4952288;28;81462;-66
2021/01/30 09:44:16;;;;;;;2.47;0.52;;;11.60;93.60;;;;;;4970706;28;81100;-68
2021/01/30 09:46:44;;;;;;;3.35;0.47;;;11.60;92.90;;;;;;4970365;28;81044;-69
2021/01/30 09:49:23;;;;;;;1.88;0.55;;;11.60;92.80;;;;;;4952419;28;81838;-68
2021/01/30 09:51:53;;;;;;;1.45;0.60;;;11.90;93.20;;;;;;4951952;28;81470;-67
2021/01/30 09:54:21;;;;;;;4.00;0.82;;;12.10;94.40;;;;;;4969647;28;79978;-64
2021/01/30 09:56:47;;;;;;;2.28;0.50;;;12.30;92.50;;;;;;4970402;28;79708;-69
2021/01/30 09:59:15;;;;;;;1.50;0.30;;;12.40;93.10;;;;;;4969926;28;80311;-69
2021/01/30 10:01:44;;;;;;;1.67;0.43;;;12.60;92.60;;;;;;4952310;28;80454;-64
2021/01/30 10:04:27;;;;;;;1.40;0.60;;;12.70;92.30;;;;;;4952069;28;80818;-69
2021/01/30 10:07:05;;;;;;;1.75;0.38;;;12.80;91.40;;;;;;4969939;28;80391;-70
2021/01/30 10:09:36;;;;;;;1.63;0.63;;;12.90;91.30;;;;;;4969921;28;81082;-68
2021/01/30 10:12:02;;;;;;;1.60;0.43;;;13.10;93.40;;;;;;4969861;28;80650;-68
2021/01/30 10:14:40;;;;;;;0.90;0.30;;;13.30;93.30;;;;;;4970060;28;80605;-68
2021/01/30 10:17:20;;;;;;;1.20;0.30;;;13.40;91.20;;;;;;4951787;28;80066;-70
2021/01/30 10:19:46;;;;;;;1.65;0.38;;;13.40;91.10;;;;;;4951998;28;81156;-68
2021/01/30 10:22:21;;;;;;;2.42;0.40;;;13.40;88.80;;;;;;4969471;28;80345;-69
2021/01/30 10:24:48;;;;;;;2.58;0.40;;;13.30;88.40;;;;;;4968408;28;80615;-68
2021/01/30 10:27:19;;;;;;;1.77;0.47;;;13.20;87.40;;;;;;4949291;28;82676;-68
2021/01/30 10:29:46;;;;;;;1.83;0.47;;;13.30;87.90;;;;;;4969700;28;79764;-68
2021/01/30 10:32:20;;;;;;;2.38;0.40;;;13.60;87.80;;;;;;4951532;28;80845;-68
2021/01/30 10:34:56;;;;;;;1.42;0.30;;;14.00;86.80;;;;;;4969837;28;80266;-69
2021/01/30 10:37:45;;;;;;;2.08;0.20;;;14.40;86.50;;;;;;4969317;28;79998;-69
2021/01/30 10:40:27;;;;;;;2.13;0.50;;;14.60;88.70;;;;;;4951652;28;83480;-69
2021/01/30 10:42:59;;;;;;;3.75;0.95;;;14.40;84.60;;;;;;4951484;28;82234;-70
2021/01/30 10:45:28;;;;;;;3.05;0.40;;;14.10;83.40;;;;;;4951453;28;83632;-69
2021/01/30 10:48:23;;;;;;;1.17;0.40;;;13.80;84.00;;;;;;4950793;28;81166;-69
2021/01/30 10:50:49;;;;;;;2.20;0.80;;;14.20;84.80;;;;;;4968703;28;80598;-69
2021/01/30 10:53:32;;;;;;;2.38;0.40;;;14.60;83.70;;;;;;4969508;28;80044;-69
2021/01/30 10:55:58;;;;;;;1.25;0.30;;;14.40;85.60;;;;;;4951369;28;80102;-67
2021/01/30 10:58:24;;;;;;;3.10;0.40;;;14.80;83.80;;;;;;4951084;28;81682;-68
2021/01/30 11:01:12;;;;;;;1.58;0.45;;;14.60;82.80;;;;;;4951580;28;82981;-69
2021/01/30 11:03:51;;;;;;;3.42;0.30;;;14.20;84.10;;;;;;4969481;28;80302;-68
2021/01/30 11:06:31;;;;;;;1.50;0.30;;;14.00;83.10;;;;;;4969016;28;81132;-67
2021/01/30 11:09:00;;;;;;;1.33;0.60;;;14.10;83.20;;;;;;4951016;28;80601;-68
2021/01/30 11:11:30;;;;;;;4.05;0.75;;;13.70;83.70;;;;;;4969234;28;81127;-67
2021/01/30 11:13:59;;;;;;;5.43;1.13;;;13.80;83.20;;;;;;4951076;28;81696;-68
2021/01/30 11:16:36;;;;;;;2.35;0.60;;;13.70;83.60;;;;;;4968958;28;80617;-68
2021/01/30 11:19:32;;;;;;;4.68;0.98;;;14.70;82.40;;;;;;4969109;28;79766;-67
2021/01/30 11:22:10;;;;;;;2.40;0.80;;;15.00;81.90;;;;;;4950986;28;82799;-68
2021/01/30 11:24:46;;;;;;;2.45;0.82;;;16.10;82.20;;;;;;4968829;28;80269;-68
2021/01/30 11:27:32;;;;;;;3.50;1.15;;;17.00;77.60;;;;;;4951044;28;81024;-69
2021/01/30 11:30:09;;;;;;;4.97;0.80;;;17.80;80.80;;;;;;4954362;28;80286;-70
2021/01/30 11:32:35;;;;;;;6.03;1.33;;;18.10;74.80;;;;;;4950888;28;83466;-69
2021/01/30 11:35:01;;;;;;;4.82;1.27;;;18.50;75.30;;;;;;4968742;28;80265;-70
2021/01/30 11:37:27;;;;;;;4.32;0.77;;;17.80;73.90;;;;;;4968355;28;80632;-68
2021/01/30 11:39:53;;;;;;;8.13;1.08;;;16.90;76.30;;;;;;4969067;28;79867;-68
2021/01/30 11:42:19;;;;;;;5.28;1.38;;;17.20;75.90;;;;;;4950332;28;81093;-68
2021/01/30 11:44:46;;;;;;;4.38;0.80;;;17.30;74.80;;;;;;4950119;28;81807;-68
2021/01/30 11:47:12;;;;;;;4.97;0.90;;;17.50;75.20;;;;;;4968160;28;80174;-66
2021/01/30 11:49:38;;;;;;;4.40;0.90;;;18.20;72.80;;;;;;4950753;28;79760;-64
2021/01/30 11:52:04;;;;;;;2.72;0.80;;;18.50;71.20;;;;;;4968722;28;79664;-67
2021/01/30 11:54:30;;;;;;;5.78;1.30;;;18.90;70.20;;;;;;4950568;28;83016;-68
2021/01/30 11:56:56;;;;;;;7.28;0.95;;;19.10;67.80;;;;;;4969002;28;80373;-67
2021/01/30 11:59:22;;;;;;;3.42;1.00;;;19.30;68.60;;;;;;4967860;28;80231;-66
2021/01/30 12:01:48;;;;;;;4.90;0.52;;;18.30;68.20;;;;;;4948765;28;82105;-67
2021/01/30 12:04:14;;;;;;;3.08;0.77;;;17.10;70.60;;;;;;4950377;28;82540;-66
2021/01/30 12:06:41;;;;;;;2.75;1.05;;;16.40;72.00;;;;;;4950160;28;80740;-67
2021/01/30 12:09:06;;;;;;;5.40;0.73;;;17.00;70.80;;;;;;4968046;28;80122;-68
2021/01/30 12:11:32;;;;;;;6.65;0.88;;;18.00;68.10;;;;;;4968396;28;80861;-68
2021/01/30 12:13:58;;;;;;;5.43;0.80;;;18.40;67.90;;;;;;4950412;28;79929;-70
2021/01/30 12:16:25;;;;;;;3.70;0.60;;;18.40;67.30;;;;;;4949953;28;81901;-68
2021/01/30 12:18:51;;;;;;;2.90;0.85;;;18.90;67.70;;;;;;4968461;28;79882;-70
2021/01/30 12:21:17;;;;;;;5.60;1.00;;;19.60;65.70;;;;;;4968180;28;80574;-67
2021/01/30 12:23:44;;;;;;;4.53;0.90;;;19.50;65.30;;;;;;4968132;28;80554;-70
2021/01/30 12:26:12;;;;;;;5.10;0.63;;;20.00;63.60;;;;;;4950078;28;81860;-66
2021/01/30 12:28:38;;;;;;;12.18;1.40;;;19.60;63.10;;;;;;4949638;28;80620;-64
2021/01/30 12:31:05;;;;;;;4.85;1.00;;;20.50;64.30;;;;;;4949612;28;82856;-65
2021/01/30 12:33:31;;;;;;;9.40;1.80;;;22.00;59.80;;;;;;4949296;28;82324;-67
2021/01/30 12:35:57;;;;;;;10.45;1.90;;;22.60;58.60;;;;;;4950021;28;81974;-66
2021/01/30 12:38:24;;;;;;;4.68;1.15;;;22.80;57.70;;;;;;4949607;28;82322;-67
2021/01/30 12:40:51;;;;;;;5.25;1.30;;;23.20;55.40;;;;;;4949879;28;80859;-67
2021/01/30 12:43:20;;;;;;;4.35;0.95;;;21.90;56.60;;;;;;4949679;28;82719;-68
2021/01/30 12:45:47;;;;;;;3.70;0.88;;;21.90;55.90;;;;;;4949514;28;84303;-67
2021/01/30 12:48:13;;;;;;;3.67;1.25;;;21.30;55.70;;;;;;4949704;28;80756;-67
2021/01/30 12:50:40;;;;;;;5.03;1.15;;;21.00;55.80;;;;;;4949522;28;80820;-66
2021/01/30 12:53:08;;;;;;;4.28;1.48;;;19.50;56.50;;;;;;4967623;28;80268;-70
2021/01/30 12:55:35;;;;;;;5.57;1.40;;;18.40;57.80;;;;;;4949667;28;82759;-66
2021/01/30 12:58:13;;;;;;;9.77;1.00;;;17.10;59.50;;;;;;4949272;28;81280;-69
2021/01/30 13:00:39;;;;;;;4.45;1.05;;;16.20;65.40;;;;;;4949661;28;83587;-69
2021/01/30 13:03:05;;;;;;;6.40;2.00;;;15.60;68.00;;;;;;4967175;28;80204;-67
2021/01/30 13:05:31;;;;;;;11.38;1.42;;;15.40;68.00;;;;;;4949685;28;79800;-70
2021/01/30 13:07:57;;;;;;;7.97;1.75;;;15.20;69.40;;;;;;4949173;28;83997;-72
2021/01/30 13:10:23;;;;;;;10.32;1.90;;;15.40;70.00;;;;;;4967493;28;80861;-67
2021/01/30 13:12:51;;;;;;;8.57;2.40;;;15.40;71.60;;;;;;4947550;28;82973;-69
2021/01/30 13:15:18;;;;;;;10.55;1.92;;;15.20;71.10;;;;;;4949457;28;82927;-69
2021/01/30 13:17:44;;;;;;;8.20;1.42;;;14.70;72.30;;;;;;4967544;28;79860;-67
2021/01/30 13:20:10;;;;;;;5.75;1.42;;;14.50;73.70;;;;;;4967785;28;80898;-68
2021/01/30 13:22:36;;;;;;;7.47;1.80;;;14.40;73.80;;;;;;4967163;28;80214;-69
2021/01/30 13:25:04;;;;;;;7.05;1.80;;;14.20;74.00;;;;;;4967124;28;80751;-68
2021/01/30 13:27:32;;;;;;;10.25;2.38;;;14.00;74.20;;;;;;4967375;28;80418;-67